sensor_id;sensor_type;location;lat;lon;timestamp;P1;durP1;ratioP1;P2;durP2;ratioP2
23115;SDS011;11727;52.134;5.052;2023-04-15T00:01:59;8.40;;;2.15;;
23115;SDS011;11727;52.134;5.052;2023-04-15T00:04:25;6.10;;;3.20;;
23115;SDS011;11727;52.134;5.052;2023-04-15T00:06:51;5.40;;;2.88;;
23115;SDS011;11727;52.134;5.052;2023-04-15T00:09:18;7.50;;;2.38;;
23115;SDS011;11727;52.134;5.052;2023-04-15T00:11:44;2.47;;;1.63;;
23115;SDS011;11727;52.134;5.052;2023-04-15T00:14:11;5.38;;;2.78;;
23115;SDS011;11727;52.134;5.052;2023-04-15T00:16:37;5.68;;;2.78;;
23115;SDS011;11727;52.134;5.052;2023-04-15T00:19:03;6.50;;;2.45;;
23115;SDS011;11727;52.134;5.052;2023-04-15T00:21:29;8.65;;;2.85;;
23115;SDS011;11727;52.134;5.052;2023-04-15T00:23:54;7.97;;;2.67;;
23115;SDS011;11727;52.134;5.052;2023-04-15T00:26:20;7.07;;;2.40;;
23115;SDS011;11727;52.134;5.052;2023-04-15T00:28:46;8.32;;;2.58;;
23115;SDS011;11727;52.134;5.052;2023-04-15T00:31:12;3.80;;;2.33;;
23115;SDS011;11727;52.134;5.052;2023-04-15T00:33:38;10.38;;;2.63;;
23115;SDS011;11727;52.134;5.052;2023-04-15T00:36:05;6.18;;;2.70;;
23115;SDS011;11727;52.134;5.052;2023-04-15T00:38:31;6.43;;;2.90;;
23115;SDS011;11727;52.134;5.052;2023-04-15T00:40:56;6.10;;;3.45;;
23115;SDS011;11727;52.134;5.052;2023-04-15T00:43:22;6.93;;;3.05;;
23115;SDS011;11727;52.134;5.052;2023-04-15T00:45:48;4.55;;;2.55;;
23115;SDS011;11727;52.134;5.052;2023-04-15T00:50:41;10.48;;;2.92;;
23115;SDS011;11727;52.134;5.052;2023-04-15T00:53:07;5.78;;;2.50;;
23115;SDS011;11727;52.134;5.052;2023-04-15T00:55:32;13.90;;;3.42;;
23115;SDS011;11727;52.134;5.052;2023-04-15T00:57:58;7.82;;;2.85;;
23115;SDS011;11727;52.134;5.052;2023-04-15T01:00:23;9.05;;;3.05;;
23115;SDS011;11727;52.134;5.052;2023-04-15T01:02:49;8.38;;;2.75;;
23115;SDS011;11727;52.134;5.052;2023-04-15T01:05:15;4.95;;;2.20;;
23115;SDS011;11727;52.134;5.052;2023-04-15T01:07:42;13.40;;;2.92;;
23115;SDS011;11727;52.134;5.052;2023-04-15T01:10:08;5.82;;;2.70;;
23115;SDS011;11727;52.134;5.052;2023-04-15T01:12:34;7.13;;;2.28;;
23115;SDS011;11727;52.134;5.052;2023-04-15T01:15:01;4.10;;;2.72;;
23115;SDS011;11727;52.134;5.052;2023-04-15T01:17:27;4.75;;;2.47;;
23115;SDS011;11727;52.134;5.052;2023-04-15T01:19:53;5.50;;;2.88;;
23115;SDS011;11727;52.134;5.052;2023-04-15T01:22:20;8.48;;;2.92;;
23115;SDS011;11727;52.134;5.052;2023-04-15T01:24:48;9.80;;;2.78;;
23115;SDS011;11727;52.134;5.052;2023-04-15T01:27:20;7.28;;;2.67;;
23115;SDS011;11727;52.134;5.052;2023-04-15T01:29:46;5.38;;;2.60;;
23115;SDS011;11727;52.134;5.052;2023-04-15T01:32:12;8.95;;;3.15;;
23115;SDS011;11727;52.134;5.052;2023-04-15T01:34:38;7.47;;;2.70;;
23115;SDS011;11727;52.134;5.052;2023-04-15T01:37:03;6.32;;;2.97;;
23115;SDS011;11727;52.134;5.052;2023-04-15T01:39:29;8.13;;;2.40;;
23115;SDS011;11727;52.134;5.052;2023-04-15T01:41:54;4.88;;;2.47;;
23115;SDS011;11727;52.134;5.052;2023-04-15T01:44:21;10.32;;;3.45;;
23115;SDS011;11727;52.134;5.052;2023-04-15T01:46:46;8.57;;;2.40;;
23115;SDS011;11727;52.134;5.052;2023-04-15T01:49:12;7.88;;;2.50;;
23115;SDS011;11727;52.134;5.052;2023-04-15T01:51:38;8.80;;;3.20;;
23115;SDS011;11727;52.134;5.052;2023-04-15T01:54:03;5.30;;;2.50;;
23115;SDS011;11727;52.134;5.052;2023-04-15T01:56:29;8.30;;;3.22;;
23115;SDS011;11727;52.134;5.052;2023-04-15T01:58:54;6.22;;;2.50;;
23115;SDS011;11727;52.134;5.052;2023-04-15T02:01:20;7.95;;;2.70;;
23115;SDS011;11727;52.134;5.052;2023-04-15T02:03:46;6.78;;;2.88;;
23115;SDS011;11727;52.134;5.052;2023-04-15T02:06:12;5.90;;;3.40;;
23115;SDS011;11727;52.134;5.052;2023-04-15T02:08:37;6.28;;;3.40;;
23115;SDS011;11727;52.134;5.052;2023-04-15T02:11:03;6.68;;;2.72;;
23115;SDS011;11727;52.134;5.052;2023-04-15T02:13:29;4.88;;;3.15;;
23115;SDS011;11727;52.134;5.052;2023-04-15T02:15:54;5.40;;;3.08;;
23115;SDS011;11727;52.134;5.052;2023-04-15T02:18:20;7.20;;;2.97;;
23115;SDS011;11727;52.134;5.052;2023-04-15T02:20:46;7.40;;;3.13;;
23115;SDS011;11727;52.134;5.052;2023-04-15T02:23:12;5.32;;;3.05;;
23115;SDS011;11727;52.134;5.052;2023-04-15T02:25:38;5.43;;;3.03;;
23115;SDS011;11727;52.134;5.052;2023-04-15T02:28:04;7.25;;;3.10;;
23115;SDS011;11727;52.134;5.052;2023-04-15T02:30:30;5.28;;;2.80;;
23115;SDS011;11727;52.134;5.052;2023-04-15T02:32:57;3.95;;;2.50;;
23115;SDS011;11727;52.134;5.052;2023-04-15T02:35:22;5.55;;;2.65;;
23115;SDS011;11727;52.134;5.052;2023-04-15T02:37:50;5.82;;;3.17;;
23115;SDS011;11727;52.134;5.052;2023-04-15T02:40:15;8.20;;;3.97;;
23115;SDS011;11727;52.134;5.052;2023-04-15T02:42:41;4.85;;;2.70;;
23115;SDS011;11727;52.134;5.052;2023-04-15T02:45:08;7.57;;;4.00;;
23115;SDS011;11727;52.134;5.052;2023-04-15T02:50:05;6.22;;;2.85;;
23115;SDS011;11727;52.134;5.052;2023-04-15T02:52:36;7.50;;;2.95;;
23115;SDS011;11727;52.134;5.052;2023-04-15T02:55:06;4.32;;;2.80;;
23115;SDS011;11727;52.134;5.052;2023-04-15T02:57:32;5.65;;;3.17;;
23115;SDS011;11727;52.134;5.052;2023-04-15T02:59:58;7.87;;;2.90;;
23115;SDS011;11727;52.134;5.052;2023-04-15T03:02:24;6.72;;;3.17;;
23115;SDS011;11727;52.134;5.052;2023-04-15T03:04:50;7.90;;;2.92;;
23115;SDS011;11727;52.134;5.052;2023-04-15T03:07:16;6.10;;;3.65;;
23115;SDS011;11727;52.134;5.052;2023-04-15T03:09:42;6.18;;;3.20;;
23115;SDS011;11727;52.134;5.052;2023-04-15T03:12:08;5.40;;;3.25;;
23115;SDS011;11727;52.134;5.052;2023-04-15T03:14:34;5.53;;;3.20;;
23115;SDS011;11727;52.134;5.052;2023-04-15T03:16:59;5.35;;;3.13;;
23115;SDS011;11727;52.134;5.052;2023-04-15T03:19:25;13.27;;;3.60;;
23115;SDS011;11727;52.134;5.052;2023-04-15T03:21:51;6.65;;;3.25;;
23115;SDS011;11727;52.134;5.052;2023-04-15T03:24:17;7.45;;;3.08;;
23115;SDS011;11727;52.134;5.052;2023-04-15T03:26:42;7.22;;;3.00;;
23115;SDS011;11727;52.134;5.052;2023-04-15T03:29:08;6.80;;;3.15;;
23115;SDS011;11727;52.134;5.052;2023-04-15T03:31:33;5.88;;;3.40;;
23115;SDS011;11727;52.134;5.052;2023-04-15T03:33:59;9.60;;;3.33;;
23115;SDS011;11727;52.134;5.052;2023-04-15T03:36:25;8.13;;;3.20;;
23115;SDS011;11727;52.134;5.052;2023-04-15T03:38:52;10.50;;;3.90;;
23115;SDS011;11727;52.134;5.052;2023-04-15T03:41:19;8.82;;;3.38;;
23115;SDS011;11727;52.134;5.052;2023-04-15T03:43:44;5.55;;;2.90;;
23115;SDS011;11727;52.134;5.052;2023-04-15T03:46:10;5.03;;;3.33;;
23115;SDS011;11727;52.134;5.052;2023-04-15T03:48:36;7.70;;;3.50;;
23115;SDS011;11727;52.134;5.052;2023-04-15T03:51:02;6.55;;;3.35;;
23115;SDS011;11727;52.134;5.052;2023-04-15T03:53:28;9.32;;;3.53;;
23115;SDS011;11727;52.134;5.052;2023-04-15T03:55:53;6.25;;;3.45;;
23115;SDS011;11727;52.134;5.052;2023-04-15T03:58:19;9.77;;;3.65;;
23115;SDS011;11727;52.134;5.052;2023-04-15T04:00:44;8.73;;;3.63;;
23115;SDS011;11727;52.134;5.052;2023-04-15T04:03:10;6.78;;;4.18;;
23115;SDS011;11727;52.134;5.052;2023-04-15T04:05:36;10.55;;;4.05;;
23115;SDS011;11727;52.134;5.052;2023-04-15T04:08:03;9.45;;;3.45;;
23115;SDS011;11727;52.134;5.052;2023-04-15T04:10:28;8.50;;;3.28;;
23115;SDS011;11727;52.134;5.052;2023-04-15T04:12:54;4.95;;;3.33;;
23115;SDS011;11727;52.134;5.052;2023-04-15T04:15:20;6.20;;;3.70;;
23115;SDS011;11727;52.134;5.052;2023-04-15T04:17:45;9.95;;;3.88;;
23115;SDS011;11727;52.134;5.052;2023-04-15T04:20:11;6.72;;;3.63;;
23115;SDS011;11727;52.134;5.052;2023-04-15T04:22:37;6.45;;;3.50;;
23115;SDS011;11727;52.134;5.052;2023-04-15T04:25:06;7.75;;;3.22;;
23115;SDS011;11727;52.134;5.052;2023-04-15T04:27:33;7.80;;;3.95;;
23115;SDS011;11727;52.134;5.052;2023-04-15T04:29:59;9.20;;;3.63;;
23115;SDS011;11727;52.134;5.052;2023-04-15T04:32:25;7.70;;;3.60;;
23115;SDS011;11727;52.134;5.052;2023-04-15T04:34:51;7.57;;;4.00;;
23115;SDS011;11727;52.134;5.052;2023-04-15T04:37:16;8.73;;;4.35;;
23115;SDS011;11727;52.134;5.052;2023-04-15T04:39:42;9.63;;;3.67;;
23115;SDS011;11727;52.134;5.052;2023-04-15T04:42:07;6.82;;;3.15;;
23115;SDS011;11727;52.134;5.052;2023-04-15T04:44:33;8.57;;;3.97;;
23115;SDS011;11727;52.134;5.052;2023-04-15T04:46:59;7.75;;;3.78;;
23115;SDS011;11727;52.134;5.052;2023-04-15T04:49:24;12.30;;;4.07;;
23115;SDS011;11727;52.134;5.052;2023-04-15T04:51:50;8.40;;;4.07;;
23115;SDS011;11727;52.134;5.052;2023-04-15T04:54:16;7.40;;;3.17;;
23115;SDS011;11727;52.134;5.052;2023-04-15T04:56:42;9.90;;;4.00;;
23115;SDS011;11727;52.134;5.052;2023-04-15T04:59:07;9.20;;;4.63;;
23115;SDS011;11727;52.134;5.052;2023-04-15T05:01:33;9.15;;;4.70;;
23115;SDS011;11727;52.134;5.052;2023-04-15T05:03:59;9.57;;;4.40;;
23115;SDS011;11727;52.134;5.052;2023-04-15T05:06:25;7.07;;;4.05;;
23115;SDS011;11727;52.134;5.052;2023-04-15T05:08:51;9.43;;;4.22;;
23115;SDS011;11727;52.134;5.052;2023-04-15T05:11:17;8.25;;;3.92;;
23115;SDS011;11727;52.134;5.052;2023-04-15T05:13:42;5.50;;;3.63;;
23115;SDS011;11727;52.134;5.052;2023-04-15T05:16:08;14.77;;;4.57;;
23115;SDS011;11727;52.134;5.052;2023-04-15T05:18:34;11.65;;;4.22;;
23115;SDS011;11727;52.134;5.052;2023-04-15T05:20:59;8.30;;;4.05;;
23115;SDS011;11727;52.134;5.052;2023-04-15T05:23:25;8.70;;;5.30;;
23115;SDS011;11727;52.134;5.052;2023-04-15T05:25:51;8.65;;;3.35;;
23115;SDS011;11727;52.134;5.052;2023-04-15T05:28:16;11.80;;;4.32;;
23115;SDS011;11727;52.134;5.052;2023-04-15T05:30:42;13.07;;;4.03;;
23115;SDS011;11727;52.134;5.052;2023-04-15T05:33:08;10.80;;;4.22;;
23115;SDS011;11727;52.134;5.052;2023-04-15T05:35:33;7.93;;;4.13;;
23115;SDS011;11727;52.134;5.052;2023-04-15T05:37:59;14.52;;;4.70;;
23115;SDS011;11727;52.134;5.052;2023-04-15T05:40:25;8.23;;;4.10;;
23115;SDS011;11727;52.134;5.052;2023-04-15T05:42:51;12.25;;;4.70;;
23115;SDS011;11727;52.134;5.052;2023-04-15T05:45:16;11.23;;;4.45;;
23115;SDS011;11727;52.134;5.052;2023-04-15T05:47:42;11.90;;;5.18;;
23115;SDS011;11727;52.134;5.052;2023-04-15T05:50:08;9.60;;;4.15;;
23115;SDS011;11727;52.134;5.052;2023-04-15T05:52:34;9.25;;;4.20;;
23115;SDS011;11727;52.134;5.052;2023-04-15T05:55:02;10.65;;;4.55;;
23115;SDS011;11727;52.134;5.052;2023-04-15T05:57:28;9.50;;;4.28;;
23115;SDS011;11727;52.134;5.052;2023-04-15T05:59:54;8.15;;;3.88;;
23115;SDS011;11727;52.134;5.052;2023-04-15T06:02:21;8.93;;;4.63;;
23115;SDS011;11727;52.134;5.052;2023-04-15T06:04:46;10.02;;;4.40;;
23115;SDS011;11727;52.134;5.052;2023-04-15T06:07:12;9.63;;;4.10;;
23115;SDS011;11727;52.134;5.052;2023-04-15T06:09:38;11.05;;;4.55;;
23115;SDS011;11727;52.134;5.052;2023-04-15T06:12:03;9.70;;;3.50;;
23115;SDS011;11727;52.134;5.052;2023-04-15T06:14:30;10.05;;;4.53;;
23115;SDS011;11727;52.134;5.052;2023-04-15T06:16:56;13.18;;;4.65;;
23115;SDS011;11727;52.134;5.052;2023-04-15T06:19:22;12.43;;;3.72;;
23115;SDS011;11727;52.134;5.052;2023-04-15T06:21:47;10.43;;;4.18;;
23115;SDS011;11727;52.134;5.052;2023-04-15T06:24:13;8.30;;;4.45;;
23115;SDS011;11727;52.134;5.052;2023-04-15T06:26:38;8.43;;;4.07;;
23115;SDS011;11727;52.134;5.052;2023-04-15T06:29:04;8.13;;;3.75;;
23115;SDS011;11727;52.134;5.052;2023-04-15T06:31:30;10.77;;;4.72;;
23115;SDS011;11727;52.134;5.052;2023-04-15T06:33:55;9.88;;;4.55;;
23115;SDS011;11727;52.134;5.052;2023-04-15T06:36:21;8.00;;;4.57;;
23115;SDS011;11727;52.134;5.052;2023-04-15T06:38:46;8.80;;;4.00;;
23115;SDS011;11727;52.134;5.052;2023-04-15T06:41:12;8.98;;;4.18;;
23115;SDS011;11727;52.134;5.052;2023-04-15T06:43:38;12.25;;;4.65;;
23115;SDS011;11727;52.134;5.052;2023-04-15T06:46:04;9.98;;;4.53;;
23115;SDS011;11727;52.134;5.052;2023-04-15T06:48:30;10.90;;;4.35;;
23115;SDS011;11727;52.134;5.052;2023-04-15T06:50:55;13.23;;;4.47;;
23115;SDS011;11727;52.134;5.052;2023-04-15T06:53:23;9.70;;;4.65;;
23115;SDS011;11727;52.134;5.052;2023-04-15T06:55:51;8.75;;;4.45;;
23115;SDS011;11727;52.134;5.052;2023-04-15T06:58:16;14.77;;;5.07;;
23115;SDS011;11727;52.134;5.052;2023-04-15T07:00:42;12.57;;;4.53;;
23115;SDS011;11727;52.134;5.052;2023-04-15T07:03:08;7.97;;;4.22;;
23115;SDS011;11727;52.134;5.052;2023-04-15T07:05:35;6.47;;;3.97;;
23115;SDS011;11727;52.134;5.052;2023-04-15T07:08:00;9.85;;;5.35;;
23115;SDS011;11727;52.134;5.052;2023-04-15T07:10:26;9.02;;;4.38;;
23115;SDS011;11727;52.134;5.052;2023-04-15T07:12:51;9.38;;;4.30;;
23115;SDS011;11727;52.134;5.052;2023-04-15T07:15:17;8.10;;;4.28;;
23115;SDS011;11727;52.134;5.052;2023-04-15T07:17:43;12.05;;;4.68;;
23115;SDS011;11727;52.134;5.052;2023-04-15T07:20:08;7.20;;;4.47;;
23115;SDS011;11727;52.134;5.052;2023-04-15T07:22:34;9.07;;;4.05;;
23115;SDS011;11727;52.134;5.052;2023-04-15T07:25:00;10.85;;;4.97;;
23115;SDS011;11727;52.134;5.052;2023-04-15T07:27:26;9.02;;;4.60;;
23115;SDS011;11727;52.134;5.052;2023-04-15T07:29:51;11.88;;;4.57;;
23115;SDS011;11727;52.134;5.052;2023-04-15T07:32:17;7.32;;;4.25;;
23115;SDS011;11727;52.134;5.052;2023-04-15T07:34:43;9.68;;;4.28;;
23115;SDS011;11727;52.134;5.052;2023-04-15T07:37:09;8.48;;;3.78;;
23115;SDS011;11727;52.134;5.052;2023-04-15T07:39:34;10.60;;;4.07;;
23115;SDS011;11727;52.134;5.052;2023-04-15T07:42:01;10.20;;;4.80;;
23115;SDS011;11727;52.134;5.052;2023-04-15T07:44:28;8.50;;;3.67;;
23115;SDS011;11727;52.134;5.052;2023-04-15T07:46:54;5.10;;;2.97;;
23115;SDS011;11727;52.134;5.052;2023-04-15T07:49:20;6.32;;;3.53;;
23115;SDS011;11727;52.134;5.052;2023-04-15T07:51:46;6.03;;;3.13;;
23115;SDS011;11727;52.134;5.052;2023-04-15T07:54:13;7.13;;;3.47;;
23115;SDS011;11727;52.134;5.052;2023-04-15T07:56:39;7.00;;;3.38;;
23115;SDS011;11727;52.134;5.052;2023-04-15T07:59:05;6.43;;;3.05;;
23115;SDS011;11727;52.134;5.052;2023-04-15T08:01:31;5.00;;;2.42;;
23115;SDS011;11727;52.134;5.052;2023-04-15T08:03:57;5.75;;;2.80;;
23115;SDS011;11727;52.134;5.052;2023-04-15T08:06:23;4.10;;;2.53;;
23115;SDS011;11727;52.134;5.052;2023-04-15T08:08:49;5.57;;;2.78;;
23115;SDS011;11727;52.134;5.052;2023-04-15T08:11:14;8.05;;;3.20;;
23115;SDS011;11727;52.134;5.052;2023-04-15T08:13:40;7.90;;;3.20;;
23115;SDS011;11727;52.134;5.052;2023-04-15T08:16:15;5.72;;;2.83;;
23115;SDS011;11727;52.134;5.052;2023-04-15T08:18:45;4.78;;;2.63;;
23115;SDS011;11727;52.134;5.052;2023-04-15T08:21:14;5.80;;;3.15;;
23115;SDS011;11727;52.134;5.052;2023-04-15T08:23:40;6.28;;;2.70;;
23115;SDS011;11727;52.134;5.052;2023-04-15T08:26:07;4.95;;;2.95;;
23115;SDS011;11727;52.134;5.052;2023-04-15T08:28:32;5.63;;;2.97;;
23115;SDS011;11727;52.134;5.052;2023-04-15T08:30:58;6.55;;;3.17;;
23115;SDS011;11727;52.134;5.052;2023-04-15T08:33:24;7.55;;;3.88;;
23115;SDS011;11727;52.134;5.052;2023-04-15T08:35:50;8.02;;;3.20;;
23115;SDS011;11727;52.134;5.052;2023-04-15T08:38:16;10.93;;;3.05;;
23115;SDS011;11727;52.134;5.052;2023-04-15T08:40:42;5.78;;;3.08;;
23115;SDS011;11727;52.134;5.052;2023-04-15T08:43:10;5.85;;;2.42;;
23115;SDS011;11727;52.134;5.052;2023-04-15T08:45:39;7.57;;;3.40;;
23115;SDS011;11727;52.134;5.052;2023-04-15T08:48:04;11.32;;;3.90;;
23115;SDS011;11727;52.134;5.052;2023-04-15T08:50:32;4.88;;;2.83;;
23115;SDS011;11727;52.134;5.052;2023-04-15T08:52:58;7.28;;;3.85;;
23115;SDS011;11727;52.134;5.052;2023-04-15T08:55:32;5.18;;;2.40;;
23115;SDS011;11727;52.134;5.052;2023-04-15T08:58:00;5.30;;;2.70;;
23115;SDS011;11727;52.134;5.052;2023-04-15T09:00:27;5.57;;;3.17;;
23115;SDS011;11727;52.134;5.052;2023-04-15T09:02:54;6.13;;;2.95;;
23115;SDS011;11727;52.134;5.052;2023-04-15T09:05:20;4.00;;;1.80;;
23115;SDS011;11727;52.134;5.052;2023-04-15T09:07:47;7.60;;;2.00;;
23115;SDS011;11727;52.134;5.052;2023-04-15T09:10:14;2.75;;;1.63;;
23115;SDS011;11727;52.134;5.052;2023-04-15T09:12:40;4.75;;;1.90;;
23115;SDS011;11727;52.134;5.052;2023-04-15T09:15:05;4.15;;;1.98;;
23115;SDS011;11727;52.134;5.052;2023-04-15T09:17:36;4.55;;;1.70;;
23115;SDS011;11727;52.134;5.052;2023-04-15T09:22:34;3.40;;;1.63;;
23115;SDS011;11727;52.134;5.052;2023-04-15T09:25:01;3.60;;;1.70;;
23115;SDS011;11727;52.134;5.052;2023-04-15T09:27:27;6.75;;;1.50;;
23115;SDS011;11727;52.134;5.052;2023-04-15T09:29:53;5.63;;;1.85;;
23115;SDS011;11727;52.134;5.052;2023-04-15T09:32:19;5.57;;;1.88;;
23115;SDS011;11727;52.134;5.052;2023-04-15T09:34:53;3.28;;;1.92;;
23115;SDS011;11727;52.134;5.052;2023-04-15T09:37:21;5.22;;;2.40;;
23115;SDS011;11727;52.134;5.052;2023-04-15T09:39:59;4.07;;;2.00;;
23115;SDS011;11727;52.134;5.052;2023-04-15T09:42:25;3.35;;;1.52;;
23115;SDS011;11727;52.134;5.052;2023-04-15T09:44:51;4.57;;;1.60;;
23115;SDS011;11727;52.134;5.052;2023-04-15T09:47:25;6.15;;;1.58;;
23115;SDS011;11727;52.134;5.052;2023-04-15T09:49:55;2.45;;;1.30;;
23115;SDS011;11727;52.134;5.052;2023-04-15T09:52:22;3.97;;;1.25;;
23115;SDS011;11727;52.134;5.052;2023-04-15T09:54:47;1.40;;;0.80;;
23115;SDS011;11727;52.134;5.052;2023-04-15T09:57:16;2.15;;;0.80;;
23115;SDS011;11727;52.134;5.052;2023-04-15T09:59:42;2.55;;;0.68;;
23115;SDS011;11727;52.134;5.052;2023-04-15T10:02:07;1.85;;;1.00;;
23115;SDS011;11727;52.134;5.052;2023-04-15T10:04:35;2.05;;;0.80;;
23115;SDS011;11727;52.134;5.052;2023-04-15T10:07:04;1.95;;;0.70;;
23115;SDS011;11727;52.134;5.052;2023-04-15T10:09:30;1.80;;;0.90;;
23115;SDS011;11727;52.134;5.052;2023-04-15T10:11:58;2.50;;;0.90;;
23115;SDS011;11727;52.134;5.052;2023-04-15T10:14:25;1.83;;;1.13;;
23115;SDS011;11727;52.134;5.052;2023-04-15T10:16:52;2.63;;;0.90;;
23115;SDS011;11727;52.134;5.052;2023-04-15T10:19:22;1.73;;;0.90;;
23115;SDS011;11727;52.134;5.052;2023-04-15T10:21:51;3.17;;;1.00;;
23115;SDS011;11727;52.134;5.052;2023-04-15T10:24:18;2.17;;;0.85;;
23115;SDS011;11727;52.134;5.052;2023-04-15T10:26:45;2.78;;;1.13;;
23115;SDS011;11727;52.134;5.052;2023-04-15T10:29:11;3.03;;;1.55;;
23115;SDS011;11727;52.134;5.052;2023-04-15T10:31:36;5.70;;;2.15;;
23115;SDS011;11727;52.134;5.052;2023-04-15T10:34:04;7.00;;;2.05;;
23115;SDS011;11727;52.134;5.052;2023-04-15T10:36:31;5.07;;;2.25;;
23115;SDS011;11727;52.134;5.052;2023-04-15T10:38:57;3.25;;;1.77;;
23115;SDS011;11727;52.134;5.052;2023-04-15T10:41:24;3.47;;;1.95;;
23115;SDS011;11727;52.134;5.052;2023-04-15T10:49:09;5.03;;;2.17;;
23115;SDS011;11727;52.134;5.052;2023-04-15T10:51:37;4.28;;;2.30;;
23115;SDS011;11727;52.134;5.052;2023-04-15T10:54:29;4.63;;;2.15;;
23115;SDS011;11727;52.134;5.052;2023-04-15T10:59:29;4.40;;;2.00;;
23115;SDS011;11727;52.134;5.052;2023-04-15T11:02:05;5.18;;;2.03;;
23115;SDS011;11727;52.134;5.052;2023-04-15T11:07:35;2.83;;;1.88;;
23115;SDS011;11727;52.134;5.052;2023-04-15T11:12:38;5.53;;;2.15;;
23115;SDS011;11727;52.134;5.052;2023-04-15T11:20:41;3.85;;;2.10;;
23115;SDS011;11727;52.134;5.052;2023-04-15T11:23:12;3.47;;;2.10;;
23115;SDS011;11727;52.134;5.052;2023-04-15T11:25:44;7.00;;;2.38;;
23115;SDS011;11727;52.134;5.052;2023-04-15T11:28:11;2.38;;;1.63;;
23115;SDS011;11727;52.134;5.052;2023-04-15T11:30:37;5.32;;;2.88;;
23115;SDS011;11727;52.134;5.052;2023-04-15T11:33:04;5.18;;;2.47;;
23115;SDS011;11727;52.134;5.052;2023-04-15T11:35:32;3.15;;;1.77;;
23115;SDS011;11727;52.134;5.052;2023-04-15T11:38:02;3.85;;;1.80;;
23115;SDS011;11727;52.134;5.052;2023-04-15T11:40:29;8.60;;;1.80;;
23115;SDS011;11727;52.134;5.052;2023-04-15T11:43:10;4.55;;;1.65;;
23115;SDS011;11727;52.134;5.052;2023-04-15T11:45:36;1.92;;;1.15;;
23115;SDS011;11727;52.134;5.052;2023-04-15T11:48:12;1.35;;;0.95;;
23115;SDS011;11727;52.134;5.052;2023-04-15T11:50:38;1.70;;;1.10;;
23115;SDS011;11727;52.134;5.052;2023-04-15T11:53:06;5.32;;;1.80;;
23115;SDS011;11727;52.134;5.052;2023-04-15T11:55:45;3.55;;;1.40;;
23115;SDS011;11727;52.134;5.052;2023-04-15T11:58:13;3.17;;;1.33;;
23115;SDS011;11727;52.134;5.052;2023-04-15T12:00:53;2.75;;;1.38;;
23115;SDS011;11727;52.134;5.052;2023-04-15T12:03:29;3.33;;;0.98;;
23115;SDS011;11727;52.134;5.052;2023-04-15T12:06:10;3.25;;;1.65;;
23115;SDS011;11727;52.134;5.052;2023-04-15T12:11:20;2.45;;;1.30;;
23115;SDS011;11727;52.134;5.052;2023-04-15T12:13:55;2.63;;;1.20;;
23115;SDS011;11727;52.134;5.052;2023-04-15T12:16:22;7.85;;;1.23;;
23115;SDS011;11727;52.134;5.052;2023-04-15T12:18:52;4.82;;;1.98;;
23115;SDS011;11727;52.134;5.052;2023-04-15T12:21:23;2.10;;;1.05;;
23115;SDS011;11727;52.134;5.052;2023-04-15T12:23:54;3.33;;;1.45;;
23115;SDS011;11727;52.134;5.052;2023-04-15T12:26:27;3.08;;;1.20;;
23115;SDS011;11727;52.134;5.052;2023-04-15T12:28:59;2.35;;;1.13;;
23115;SDS011;11727;52.134;5.052;2023-04-15T12:31:26;4.70;;;1.60;;
23115;SDS011;11727;52.134;5.052;2023-04-15T12:33:54;9.55;;;1.50;;
23115;SDS011;11727;52.134;5.052;2023-04-15T12:36:20;3.40;;;1.30;;
23115;SDS011;11727;52.134;5.052;2023-04-15T12:38:46;3.33;;;1.55;;
23115;SDS011;11727;52.134;5.052;2023-04-15T12:41:12;2.35;;;1.25;;
23115;SDS011;11727;52.134;5.052;2023-04-15T12:43:38;5.07;;;1.38;;
23115;SDS011;11727;52.134;5.052;2023-04-15T12:46:03;3.10;;;1.48;;
23115;SDS011;11727;52.134;5.052;2023-04-15T12:48:29;3.28;;;1.00;;
23115;SDS011;11727;52.134;5.052;2023-04-15T12:50:55;5.22;;;1.30;;
23115;SDS011;11727;52.134;5.052;2023-04-15T12:53:20;4.53;;;1.00;;
23115;SDS011;11727;52.134;5.052;2023-04-15T12:55:46;6.80;;;1.10;;
23115;SDS011;11727;52.134;5.052;2023-04-15T12:58:12;1.60;;;0.90;;
23115;SDS011;11727;52.134;5.052;2023-04-15T13:00:38;1.73;;;0.77;;
23115;SDS011;11727;52.134;5.052;2023-04-15T13:03:03;3.47;;;1.02;;
23115;SDS011;11727;52.134;5.052;2023-04-15T13:05:29;3.50;;;1.13;;
23115;SDS011;11727;52.134;5.052;2023-04-15T13:07:55;2.10;;;0.93;;
23115;SDS011;11727;52.134;5.052;2023-04-15T13:10:20;1.80;;;0.80;;
23115;SDS011;11727;52.134;5.052;2023-04-15T13:12:47;3.40;;;1.00;;
23115;SDS011;11727;52.134;5.052;2023-04-15T13:15:14;3.63;;;1.00;;
23115;SDS011;11727;52.134;5.052;2023-04-15T13:17:43;1.63;;;0.70;;
23115;SDS011;11727;52.134;5.052;2023-04-15T13:20:09;2.97;;;0.93;;
23115;SDS011;11727;52.134;5.052;2023-04-15T13:22:34;3.42;;;0.80;;
23115;SDS011;11727;52.134;5.052;2023-04-15T13:25:00;1.30;;;0.57;;
23115;SDS011;11727;52.134;5.052;2023-04-15T13:27:26;3.53;;;0.98;;
23115;SDS011;11727;52.134;5.052;2023-04-15T13:29:51;5.43;;;0.70;;
23115;SDS011;11727;52.134;5.052;2023-04-15T13:32:17;2.90;;;0.70;;
23115;SDS011;11727;52.134;5.052;2023-04-15T13:34:43;1.35;;;0.70;;
23115;SDS011;11727;52.134;5.052;2023-04-15T13:37:09;1.17;;;0.60;;
23115;SDS011;11727;52.134;5.052;2023-04-15T13:39:35;2.10;;;0.60;;
23115;SDS011;11727;52.134;5.052;2023-04-15T13:42:00;2.17;;;0.50;;
23115;SDS011;11727;52.134;5.052;2023-04-15T13:44:27;0.80;;;0.60;;
23115;SDS011;11727;52.134;5.052;2023-04-15T13:46:52;2.50;;;0.50;;
23115;SDS011;11727;52.134;5.052;2023-04-15T13:49:18;1.55;;;0.68;;
23115;SDS011;11727;52.134;5.052;2023-04-15T13:51:43;4.95;;;0.60;;
23115;SDS011;11727;52.134;5.052;2023-04-15T13:54:09;6.55;;;1.00;;
23115;SDS011;11727;52.134;5.052;2023-04-15T13:56:35;1.98;;;0.60;;
23115;SDS011;11727;52.134;5.052;2023-04-15T13:59:01;2.70;;;0.55;;
23115;SDS011;11727;52.134;5.052;2023-04-15T14:01:27;1.17;;;0.40;;
23115;SDS011;11727;52.134;5.052;2023-04-15T14:03:53;4.40;;;1.10;;
23115;SDS011;11727;52.134;5.052;2023-04-15T14:06:19;5.00;;;0.55;;
23115;SDS011;11727;52.134;5.052;2023-04-15T14:08:45;1.55;;;0.52;;
23115;SDS011;11727;52.134;5.052;2023-04-15T14:11:11;0.68;;;0.40;;
23115;SDS011;11727;52.134;5.052;2023-04-15T14:13:36;0.57;;;0.30;;
23115;SDS011;11727;52.134;5.052;2023-04-15T14:16:02;1.42;;;0.40;;
23115;SDS011;11727;52.134;5.052;2023-04-15T14:18:27;1.13;;;0.50;;
23115;SDS011;11727;52.134;5.052;2023-04-15T14:20:54;2.20;;;0.38;;
23115;SDS011;11727;52.134;5.052;2023-04-15T14:23:20;1.38;;;0.47;;
23115;SDS011;11727;52.134;5.052;2023-04-15T14:25:46;1.38;;;0.40;;
23115;SDS011;11727;52.134;5.052;2023-04-15T14:28:12;7.45;;;0.60;;
23115;SDS011;11727;52.134;5.052;2023-04-15T14:30:38;1.10;;;0.77;;
23115;SDS011;11727;52.134;5.052;2023-04-15T14:33:03;1.70;;;0.50;;
23115;SDS011;11727;52.134;5.052;2023-04-15T14:35:29;2.03;;;0.50;;
23115;SDS011;11727;52.134;5.052;2023-04-15T14:37:55;3.05;;;0.40;;
23115;SDS011;11727;52.134;5.052;2023-04-15T14:40:21;1.85;;;0.88;;
23115;SDS011;11727;52.134;5.052;2023-04-15T14:42:47;1.48;;;0.47;;
23115;SDS011;11727;52.134;5.052;2023-04-15T14:45:12;1.40;;;0.50;;
23115;SDS011;11727;52.134;5.052;2023-04-15T14:47:38;0.57;;;0.30;;
23115;SDS011;11727;52.134;5.052;2023-04-15T14:50:04;0.98;;;0.30;;
23115;SDS011;11727;52.134;5.052;2023-04-15T14:52:30;1.02;;;0.40;;
23115;SDS011;11727;52.134;5.052;2023-04-15T14:55:02;2.67;;;0.43;;
23115;SDS011;11727;52.134;5.052;2023-04-15T14:57:31;2.45;;;1.10;;
23115;SDS011;11727;52.134;5.052;2023-04-15T14:59:57;1.95;;;0.90;;
23115;SDS011;11727;52.134;5.052;2023-04-15T15:02:23;2.53;;;0.60;;
23115;SDS011;11727;52.134;5.052;2023-04-15T15:04:49;2.03;;;1.00;;
23115;SDS011;11727;52.134;5.052;2023-04-15T15:07:14;3.45;;;0.50;;
23115;SDS011;11727;52.134;5.052;2023-04-15T15:09:40;1.20;;;0.50;;
23115;SDS011;11727;52.134;5.052;2023-04-15T15:12:06;3.33;;;0.40;;